sensor_id;sensor_type;location;lat;lon;timestamp;P1;durP1;ratioP1;P2;durP2;ratioP2
21158;SDS011;10737;45.436;4.390;2023-04-16T00:04:36;15.30;;;11.70;;
21158;SDS011;10737;45.436;4.390;2023-04-16T00:09:39;13.35;;;11.82;;
21158;SDS011;10737;45.436;4.390;2023-04-16T00:14:44;12.23;;;11.02;;
21158;SDS011;10737;45.436;4.390;2023-04-16T00:19:48;13.95;;;12.55;;
21158;SDS011;10737;45.436;4.390;2023-04-16T00:24:51;13.88;;;12.52;;
21158;SDS011;10737;45.436;4.390;2023-04-16T00:29:56;13.52;;;12.02;;
21158;SDS011;10737;45.436;4.390;2023-04-16T00:35:02;16.58;;;13.23;;
21158;SDS011;10737;45.436;4.390;2023-04-16T00:45:29;15.07;;;13.60;;
21158;SDS011;10737;45.436;4.390;2023-04-16T00:50:33;15.13;;;13.73;;
21158;SDS011;10737;45.436;4.390;2023-04-16T00:55:41;15.85;;;14.35;;
21158;SDS011;10737;45.436;4.390;2023-04-16T01:06:17;14.93;;;13.45;;
21158;SDS011;10737;45.436;4.390;2023-04-16T01:11:21;14.32;;;12.82;;
21158;SDS011;10737;45.436;4.390;2023-04-16T01:16:32;16.38;;;14.70;;
21158;SDS011;10737;45.436;4.390;2023-04-16T01:21:42;15.68;;;14.00;;
21158;SDS011;10737;45.436;4.390;2023-04-16T01:26:46;16.50;;;14.90;;
21158;SDS011;10737;45.436;4.390;2023-04-16T01:31:51;17.30;;;15.10;;
21158;SDS011;10737;45.436;4.390;2023-04-16T01:37:07;17.30;;;15.50;;
21158;SDS011;10737;45.436;4.390;2023-04-16T01:42:15;16.90;;;15.20;;
21158;SDS011;10737;45.436;4.390;2023-04-16T01:47:20;16.63;;;15.02;;
21158;SDS011;10737;45.436;4.390;2023-04-16T01:52:26;18.02;;;16.33;;
21158;SDS011;10737;45.436;4.390;2023-04-16T01:57:30;17.85;;;16.10;;
21158;SDS011;10737;45.436;4.390;2023-04-16T02:02:37;18.17;;;16.27;;
21158;SDS011;10737;45.436;4.390;2023-04-16T02:07:46;17.90;;;15.43;;
21158;SDS011;10737;45.436;4.390;2023-04-16T02:12:50;18.75;;;16.83;;
21158;SDS011;10737;45.436;4.390;2023-04-16T02:17:54;18.02;;;16.13;;
21158;SDS011;10737;45.436;4.390;2023-04-16T02:23:00;18.55;;;16.58;;
21158;SDS011;10737;45.436;4.390;2023-04-16T02:28:04;19.33;;;17.35;;
21158;SDS011;10737;45.436;4.390;2023-04-16T02:33:17;20.50;;;18.33;;
21158;SDS011;10737;45.436;4.390;2023-04-16T02:38:46;21.08;;;17.00;;
21158;SDS011;10737;45.436;4.390;2023-04-16T02:43:49;21.77;;;17.83;;
21158;SDS011;10737;45.436;4.390;2023-04-16T02:48:53;19.95;;;17.85;;
21158;SDS011;10737;45.436;4.390;2023-04-16T02:53:58;19.85;;;17.70;;
21158;SDS011;10737;45.436;4.390;2023-04-16T02:59:02;19.05;;;17.20;;
21158;SDS011;10737;45.436;4.390;2023-04-16T03:04:06;20.40;;;18.30;;
21158;SDS011;10737;45.436;4.390;2023-04-16T03:09:11;19.75;;;17.75;;
21158;SDS011;10737;45.436;4.390;2023-04-16T03:14:22;19.40;;;17.48;;
21158;SDS011;10737;45.436;4.390;2023-04-16T03:19:40;19.27;;;17.38;;
21158;SDS011;10737;45.436;4.390;2023-04-16T03:24:46;19.73;;;17.63;;
21158;SDS011;10737;45.436;4.390;2023-04-16T03:30:00;19.92;;;17.95;;
21158;SDS011;10737;45.436;4.390;2023-04-16T03:35:11;25.23;;;22.63;;
21158;SDS011;10737;45.436;4.390;2023-04-16T03:40:17;26.00;;;23.25;;
21158;SDS011;10737;45.436;4.390;2023-04-16T03:45:23;23.55;;;21.23;;
21158;SDS011;10737;45.436;4.390;2023-04-16T03:50:34;20.65;;;18.70;;
21158;SDS011;10737;45.436;4.390;2023-04-16T03:55:48;21.27;;;17.85;;
21158;SDS011;10737;45.436;4.390;2023-04-16T04:00:53;20.98;;;18.77;;
21158;SDS011;10737;45.436;4.390;2023-04-16T04:05:57;20.73;;;18.30;;
21158;SDS011;10737;45.436;4.390;2023-04-16T04:11:05;19.88;;;17.83;;
21158;SDS011;10737;45.436;4.390;2023-04-16T04:16:10;21.85;;;19.42;;
21158;SDS011;10737;45.436;4.390;2023-04-16T04:21:18;21.95;;;19.75;;
21158;SDS011;10737;45.436;4.390;2023-04-16T04:26:44;23.88;;;21.35;;
21158;SDS011;10737;45.436;4.390;2023-04-16T04:31:55;22.83;;;20.50;;
21158;SDS011;10737;45.436;4.390;2023-04-16T04:37:00;23.95;;;20.48;;
21158;SDS011;10737;45.436;4.390;2023-04-16T04:42:05;21.05;;;19.02;;
21158;SDS011;10737;45.436;4.390;2023-04-16T04:47:09;26.27;;;19.73;;
21158;SDS011;10737;45.436;4.390;2023-04-16T04:52:39;23.20;;;20.77;;
21158;SDS011;10737;45.436;4.390;2023-04-16T04:57:47;26.85;;;21.95;;
21158;SDS011;10737;45.436;4.390;2023-04-16T05:02:54;22.02;;;19.73;;
21158;SDS011;10737;45.436;4.390;2023-04-16T05:08:04;21.45;;;18.92;;
21158;SDS011;10737;45.436;4.390;2023-04-16T05:13:16;21.92;;;19.33;;
21158;SDS011;10737;45.436;4.390;2023-04-16T05:18:26;22.38;;;18.73;;
21158;SDS011;10737;45.436;4.390;2023-04-16T05:23:29;22.38;;;20.17;;
21158;SDS011;10737;45.436;4.390;2023-04-16T05:34:10;23.55;;;21.13;;
21158;SDS011;10737;45.436;4.390;2023-04-16T05:39:17;23.27;;;20.63;;
21158;SDS011;10737;45.436;4.390;2023-04-16T05:44:51;23.75;;;21.27;;
21158;SDS011;10737;45.436;4.390;2023-04-16T05:49:56;25.33;;;20.27;;
21158;SDS011;10737;45.436;4.390;2023-04-16T05:55:03;24.42;;;21.80;;
21158;SDS011;10737;45.436;4.390;2023-04-16T06:00:18;23.73;;;21.25;;
21158;SDS011;10737;45.436;4.390;2023-04-16T06:05:30;22.73;;;20.40;;
21158;SDS011;10737;45.436;4.390;2023-04-16T06:10:41;21.98;;;19.50;;
21158;SDS011;10737;45.436;4.390;2023-04-16T06:15:51;21.00;;;18.95;;
21158;SDS011;10737;45.436;4.390;2023-04-16T06:20:56;22.02;;;17.65;;
21158;SDS011;10737;45.436;4.390;2023-04-16T06:26:00;20.13;;;18.02;;
21158;SDS011;10737;45.436;4.390;2023-04-16T06:31:03;21.35;;;19.13;;
21158;SDS011;10737;45.436;4.390;2023-04-16T06:36:19;19.85;;;17.92;;
21158;SDS011;10737;45.436;4.390;2023-04-16T06:41:23;21.63;;;17.90;;
21158;SDS011;10737;45.436;4.390;2023-04-16T06:46:28;20.52;;;18.38;;
21158;SDS011;10737;45.436;4.390;2023-04-16T06:51:37;22.88;;;19.45;;
21158;SDS011;10737;45.436;4.390;2023-04-16T06:56:41;22.65;;;19.17;;
21158;SDS011;10737;45.436;4.390;2023-04-16T07:01:54;19.70;;;17.73;;
21158;SDS011;10737;45.436;4.390;2023-04-16T07:07:01;19.02;;;17.13;;
21158;SDS011;10737;45.436;4.390;2023-04-16T07:12:05;17.88;;;16.23;;
21158;SDS011;10737;45.436;4.390;2023-04-16T07:17:31;19.23;;;17.15;;
21158;SDS011;10737;45.436;4.390;2023-04-16T07:22:49;21.92;;;18.80;;
21158;SDS011;10737;45.436;4.390;2023-04-16T07:28:05;21.38;;;18.60;;
21158;SDS011;10737;45.436;4.390;2023-04-16T07:33:16;20.83;;;18.67;;
21158;SDS011;10737;45.436;4.390;2023-04-16T07:38:29;20.20;;;18.17;;
21158;SDS011;10737;45.436;4.390;2023-04-16T07:43:44;22.38;;;20.10;;
21158;SDS011;10737;45.436;4.390;2023-04-16T07:48:52;21.35;;;19.25;;
21158;SDS011;10737;45.436;4.390;2023-04-16T07:54:14;20.50;;;18.15;;
21158;SDS011;10737;45.436;4.390;2023-04-16T07:59:23;20.10;;;17.58;;
21158;SDS011;10737;45.436;4.390;2023-04-16T08:04:30;19.45;;;17.45;;
21158;SDS011;10737;45.436;4.390;2023-04-16T08:09:42;21.63;;;19.33;;
21158;SDS011;10737;45.436;4.390;2023-04-16T08:14:51;17.77;;;15.98;;
21158;SDS011;10737;45.436;4.390;2023-04-16T08:19:54;18.67;;;16.80;;
21158;SDS011;10737;45.436;4.390;2023-04-16T08:25:00;17.00;;;15.30;;
21158;SDS011;10737;45.436;4.390;2023-04-16T08:30:04;17.98;;;16.15;;
21158;SDS011;10737;45.436;4.390;2023-04-16T08:35:17;16.25;;;14.60;;
21158;SDS011;10737;45.436;4.390;2023-04-16T08:40:22;16.23;;;14.45;;
21158;SDS011;10737;45.436;4.390;2023-04-16T08:45:27;17.48;;;15.77;;
21158;SDS011;10737;45.436;4.390;2023-04-16T08:50:35;18.83;;;15.73;;
21158;SDS011;10737;45.436;4.390;2023-04-16T08:55:45;16.30;;;14.82;;
21158;SDS011;10737;45.436;4.390;2023-04-16T09:00:50;16.35;;;14.70;;
21158;SDS011;10737;45.436;4.390;2023-04-16T09:05:56;17.52;;;15.70;;
21158;SDS011;10737;45.436;4.390;2023-04-16T09:16:49;17.15;;;15.45;;
21158;SDS011;10737;45.436;4.390;2023-04-16T09:21:57;16.50;;;14.75;;
21158;SDS011;10737;45.436;4.390;2023-04-16T09:27:00;16.52;;;14.35;;
21158;SDS011;10737;45.436;4.390;2023-04-16T09:32:06;15.75;;;14.30;;
21158;SDS011;10737;45.436;4.390;2023-04-16T09:37:19;15.95;;;13.93;;
21158;SDS011;10737;45.436;4.390;2023-04-16T09:42:25;15.60;;;14.00;;
21158;SDS011;10737;45.436;4.390;2023-04-16T09:47:40;24.33;;;15.77;;
21158;SDS011;10737;45.436;4.390;2023-04-16T09:52:44;16.42;;;14.88;;
21158;SDS011;10737;45.436;4.390;2023-04-16T09:57:48;16.63;;;14.30;;
21158;SDS011;10737;45.436;4.390;2023-04-16T10:03:05;16.00;;;14.38;;
21158;SDS011;10737;45.436;4.390;2023-04-16T10:08:11;17.20;;;15.52;;
21158;SDS011;10737;45.436;4.390;2023-04-16T10:13:16;16.60;;;15.00;;
21158;SDS011;10737;45.436;4.390;2023-04-16T10:18:21;17.65;;;15.75;;
21158;SDS011;10737;45.436;4.390;2023-04-16T10:23:36;16.15;;;14.57;;
21158;SDS011;10737;45.436;4.390;2023-04-16T10:28:50;16.58;;;14.98;;
21158;SDS011;10737;45.436;4.390;2023-04-16T10:33:58;16.10;;;14.38;;
21158;SDS011;10737;45.436;4.390;2023-04-16T10:39:03;16.17;;;14.07;;
21158;SDS011;10737;45.436;4.390;2023-04-16T10:44:07;15.07;;;13.57;;
21158;SDS011;10737;45.436;4.390;2023-04-16T10:49:19;15.27;;;13.68;;
21158;SDS011;10737;45.436;4.390;2023-04-16T10:54:27;14.68;;;13.18;;
21158;SDS011;10737;45.436;4.390;2023-04-16T10:59:35;13.93;;;12.63;;
21158;SDS011;10737;45.436;4.390;2023-04-16T11:04:44;14.40;;;13.00;;
21158;SDS011;10737;45.436;4.390;2023-04-16T11:09:54;12.43;;;11.23;;
21158;SDS011;10737;45.436;4.390;2023-04-16T11:15:00;12.02;;;10.75;;
21158;SDS011;10737;45.436;4.390;2023-04-16T11:20:14;11.13;;;10.13;;
21158;SDS011;10737;45.436;4.390;2023-04-16T11:25:21;11.82;;;10.65;;
21158;SDS011;10737;45.436;4.390;2023-04-16T11:30:31;10.85;;;9.93;;
21158;SDS011;10737;45.436;4.390;2023-04-16T11:35:38;11.65;;;10.48;;
21158;SDS011;10737;45.436;4.390;2023-04-16T11:40:42;11.52;;;10.43;;
21158;SDS011;10737;45.436;4.390;2023-04-16T11:45:55;11.50;;;10.40;;
21158;SDS011;10737;45.436;4.390;2023-04-16T11:51:08;12.55;;;10.63;;
21158;SDS011;10737;45.436;4.390;2023-04-16T11:56:31;10.82;;;9.60;;
21158;SDS011;10737;45.436;4.390;2023-04-16T12:01:39;9.30;;;8.50;;
21158;SDS011;10737;45.436;4.390;2023-04-16T12:12:30;12.25;;;11.02;;
21158;SDS011;10737;45.436;4.390;2023-04-16T12:17:34;10.40;;;9.43;;
21158;SDS011;10737;45.436;4.390;2023-04-16T12:22:46;11.10;;;10.13;;
21158;SDS011;10737;45.436;4.390;2023-04-16T12:27:55;9.88;;;9.07;;
21158;SDS011;10737;45.436;4.390;2023-04-16T12:33:15;10.75;;;9.65;;
21158;SDS011;10737;45.436;4.390;2023-04-16T12:38:40;11.38;;;10.23;;
21158;SDS011;10737;45.436;4.390;2023-04-16T12:44:06;10.75;;;9.75;;
21158;SDS011;10737;45.436;4.390;2023-04-16T12:49:20;11.85;;;10.75;;
21158;SDS011;10737;45.436;4.390;2023-04-16T12:54:23;11.23;;;10.13;;
21158;SDS011;10737;45.436;4.390;2023-04-16T12:59:36;10.95;;;10.02;;
21158;SDS011;10737;45.436;4.390;2023-04-16T13:04:40;12.60;;;10.27;;
21158;SDS011;10737;45.436;4.390;2023-04-16T13:09:44;11.90;;;10.88;;
21158;SDS011;10737;45.436;4.390;2023-04-16T13:14:53;12.27;;;11.07;;
21158;SDS011;10737;45.436;4.390;2023-04-16T13:19:57;10.98;;;9.98;;
21158;SDS011;10737;45.436;4.390;2023-04-16T13:25:07;13.57;;;10.65;;
21158;SDS011;10737;45.436;4.390;2023-04-16T13:30:12;11.63;;;10.65;;
21158;SDS011;10737;45.436;4.390;2023-04-16T13:35:17;11.73;;;10.73;;
21158;SDS011;10737;45.436;4.390;2023-04-16T13:40:21;11.27;;;10.38;;
21158;SDS011;10737;45.436;4.390;2023-04-16T13:45:26;11.30;;;10.23;;
21158;SDS011;10737;45.436;4.390;2023-04-16T13:50:29;9.93;;;9.13;;
21158;SDS011;10737;45.436;4.390;2023-04-16T13:55:33;10.85;;;9.88;;
21158;SDS011;10737;45.436;4.390;2023-04-16T14:00:38;11.48;;;10.35;;
21158;SDS011;10737;45.436;4.390;2023-04-16T14:05:42;11.05;;;9.98;;
21158;SDS011;10737;45.436;4.390;2023-04-16T14:10:45;11.52;;;10.45;;
21158;SDS011;10737;45.436;4.390;2023-04-16T14:15:50;11.65;;;10.65;;
21158;SDS011;10737;45.436;4.390;2023-04-16T14:20:55;10.38;;;9.48;;
21158;SDS011;10737;45.436;4.390;2023-04-16T14:25:59;10.57;;;9.68;;
21158;SDS011;10737;45.436;4.390;2023-04-16T14:31:04;10.82;;;9.73;;
21158;SDS011;10737;45.436;4.390;2023-04-16T14:36:08;11.70;;;10.60;;
21158;SDS011;10737;45.436;4.390;2023-04-16T14:41:11;10.75;;;9.63;;
21158;SDS011;10737;45.436;4.390;2023-04-16T14:46:16;17.00;;;10.50;;
21158;SDS011;10737;45.436;4.390;2023-04-16T14:51:20;11.95;;;10.85;;
21158;SDS011;10737;45.436;4.390;2023-04-16T14:56:24;10.82;;;9.70;;
21158;SDS011;10737;45.436;4.390;2023-04-16T15:01:29;11.55;;;9.85;;
21158;SDS011;10737;45.436;4.390;2023-04-16T15:06:33;9.80;;;8.85;;
21158;SDS011;10737;45.436;4.390;2023-04-16T15:11:36;10.88;;;9.88;;
21158;SDS011;10737;45.436;4.390;2023-04-16T15:16:43;9.90;;;8.90;;
21158;SDS011;10737;45.436;4.390;2023-04-16T15:21:46;9.65;;;8.93;;
21158;SDS011;10737;45.436;4.390;2023-04-16T15:26:51;10.50;;;9.40;;
21158;SDS011;10737;45.436;4.390;2023-04-16T15:31:59;8.95;;;8.18;;
21158;SDS011;10737;45.436;4.390;2023-04-16T15:37:07;9.60;;;8.63;;
21158;SDS011;10737;45.436;4.390;2023-04-16T15:42:11;9.85;;;8.85;;
21158;SDS011;10737;45.436;4.390;2023-04-16T15:47:17;8.82;;;7.78;;
21158;SDS011;10737;45.436;4.390;2023-04-16T15:52:28;8.75;;;7.95;;
21158;SDS011;10737;45.436;4.390;2023-04-16T15:57:31;9.23;;;8.35;;
21158;SDS011;10737;45.436;4.390;2023-04-16T16:02:39;8.05;;;7.30;;
21158;SDS011;10737;45.436;4.390;2023-04-16T16:07:43;9.93;;;8.18;;
21158;SDS011;10737;45.436;4.390;2023-04-16T16:12:46;9.68;;;8.63;;
21158;SDS011;10737;45.436;4.390;2023-04-16T16:17:51;9.07;;;7.88;;
21158;SDS011;10737;45.436;4.390;2023-04-16T16:22:54;9.20;;;8.40;;
21158;SDS011;10737;45.436;4.390;2023-04-16T16:27:59;9.02;;;8.15;;
21158;SDS011;10737;45.436;4.390;2023-04-16T16:33:05;8.10;;;7.50;;
21158;SDS011;10737;45.436;4.390;2023-04-16T16:38:12;9.60;;;8.70;;
21158;SDS011;10737;45.436;4.390;2023-04-16T16:43:16;10.07;;;9.05;;
21158;SDS011;10737;45.436;4.390;2023-04-16T16:48:21;8.82;;;8.00;;
21158;SDS011;10737;45.436;4.390;2023-04-16T16:53:24;9.82;;;8.95;;
21158;SDS011;10737;45.436;4.390;2023-04-16T16:58:28;9.93;;;9.05;;
21158;SDS011;10737;45.436;4.390;2023-04-16T17:03:34;15.38;;;10.93;;
21158;SDS011;10737;45.436;4.390;2023-04-16T17:08:40;13.50;;;11.50;;
21158;SDS011;10737;45.436;4.390;2023-04-16T17:13:46;11.23;;;10.23;;
21158;SDS011;10737;45.436;4.390;2023-04-16T17:18:51;12.93;;;11.63;;
21158;SDS011;10737;45.436;4.390;2023-04-16T17:29:24;13.30;;;11.93;;
21158;SDS011;10737;45.436;4.390;2023-04-16T17:34:54;12.32;;;11.23;;
21158;SDS011;10737;45.436;4.390;2023-04-16T17:45:33;12.80;;;11.48;;
21158;SDS011;10737;45.436;4.390;2023-04-16T17:50:38;14.02;;;12.15;;
21158;SDS011;10737;45.436;4.390;2023-04-16T17:55:48;17.77;;;11.85;;
21158;SDS011;10737;45.436;4.390;2023-04-16T18:00:52;12.65;;;11.63;;
21158;SDS011;10737;45.436;4.390;2023-04-16T18:06:04;13.15;;;11.65;;
21158;SDS011;10737;45.436;4.390;2023-04-16T18:11:19;14.32;;;12.50;;
21158;SDS011;10737;45.436;4.390;2023-04-16T18:16:32;15.35;;;13.77;;
21158;SDS011;10737;45.436;4.390;2023-04-16T18:21:36;15.02;;;12.68;;
21158;SDS011;10737;45.436;4.390;2023-04-16T18:26:41;16.23;;;13.00;;
21158;SDS011;10737;45.436;4.390;2023-04-16T18:31:50;14.32;;;12.55;;
21158;SDS011;10737;45.436;4.390;2023-04-16T18:36:58;14.52;;;13.23;;
21158;SDS011;10737;45.436;4.390;2023-04-16T18:42:05;15.65;;;13.65;;
21158;SDS011;10737;45.436;4.390;2023-04-16T18:47:08;14.98;;;13.38;;
21158;SDS011;10737;45.436;4.390;2023-04-16T18:52:13;14.73;;;13.23;;
21158;SDS011;10737;45.436;4.390;2023-04-16T18:57:27;13.63;;;12.32;;
21158;SDS011;10737;45.436;4.390;2023-04-16T19:02:30;15.50;;;13.05;;
21158;SDS011;10737;45.436;4.390;2023-04-16T19:07:35;15.70;;;14.10;;
21158;SDS011;10737;45.436;4.390;2023-04-16T19:12:49;14.35;;;12.90;;
21158;SDS011;10737;45.436;4.390;2023-04-16T19:17:54;14.73;;;13.30;;
21158;SDS011;10737;45.436;4.390;2023-04-16T19:23:11;16.30;;;14.60;;
21158;SDS011;10737;45.436;4.390;2023-04-16T19:28:19;14.98;;;13.48;;
21158;SDS011;10737;45.436;4.390;2023-04-16T19:33:30;16.35;;;14.02;;
21158;SDS011;10737;45.436;4.390;2023-04-16T19:38:36;17.60;;;15.27;;
21158;SDS011;10737;45.436;4.390;2023-04-16T19:43:43;16.00;;;14.40;;
21158;SDS011;10737;45.436;4.390;2023-04-16T19:48:57;17.55;;;15.68;;
21158;SDS011;10737;45.436;4.390;2023-04-16T19:54:24;19.30;;;16.00;;
21158;SDS011;10737;45.436;4.390;2023-04-16T19:59:30;16.85;;;15.18;;
21158;SDS011;10737;45.436;4.390;2023-04-16T20:04:39;18.92;;;16.88;;
21158;SDS011;10737;45.436;4.390;2023-04-16T20:09:49;17.13;;;15.43;;
21158;SDS011;10737;45.436;4.390;2023-04-16T20:15:00;18.60;;;15.93;;
21158;SDS011;10737;45.436;4.390;2023-04-16T20:20:11;18.58;;;16.63;;
21158;SDS011;10737;45.436;4.390;2023-04-16T20:25:35;20.75;;;17.67;;
21158;SDS011;10737;45.436;4.390;2023-04-16T20:30:45;19.00;;;15.98;;
21158;SDS011;10737;45.436;4.390;2023-04-16T20:35:49;16.70;;;15.10;;
21158;SDS011;10737;45.436;4.390;2023-04-16T20:41:02;18.23;;;15.20;;
21158;SDS011;10737;45.436;4.390;2023-04-16T20:46:27;20.63;;;17.83;;
21158;SDS011;10737;45.436;4.390;2023-04-16T20:51:32;16.60;;;14.90;;
21158;SDS011;10737;45.436;4.390;2023-04-16T20:56:37;20.83;;;16.10;;
21158;SDS011;10737;45.436;4.390;2023-04-16T21:01:51;18.73;;;15.25;;
21158;SDS011;10737;45.436;4.390;2023-04-16T21:06:55;20.55;;;16.13;;
21158;SDS011;10737;45.436;4.390;2023-04-16T21:12:03;17.77;;;15.90;;
21158;SDS011;10737;45.436;4.390;2023-04-16T21:17:11;20.00;;;16.00;;
21158;SDS011;10737;45.436;4.390;2023-04-16T21:22:18;18.20;;;15.70;;
21158;SDS011;10737;45.436;4.390;2023-04-16T21:27:34;21.75;;;16.00;;
21158;SDS011;10737;45.436;4.390;2023-04-16T21:32:38;20.40;;;15.90;;
21158;SDS011;10737;45.436;4.390;2023-04-16T21:37:44;20.00;;;15.77;;
21158;SDS011;10737;45.436;4.390;2023-04-16T21:42:52;19.98;;;16.48;;
21158;SDS011;10737;45.436;4.390;2023-04-16T21:53:32;20.70;;;16.35;;
21158;SDS011;10737;45.436;4.390;2023-04-16T21:58:44;19.92;;;15.98;;
21158;SDS011;10737;45.436;4.390;2023-04-16T22:09:37;21.70;;;17.00;;
21158;SDS011;10737;45.436;4.390;2023-04-16T22:15:06;24.88;;;17.85;;
21158;SDS011;10737;45.436;4.390;2023-04-16T22:20:10;20.70;;;16.80;;
21158;SDS011;10737;45.436;4.390;2023-04-16T22:25:14;22.15;;;18.25;;
21158;SDS011;10737;45.436;4.390;2023-04-16T22:30:19;24.27;;;18.20;;
21158;SDS011;10737;45.436;4.390;2023-04-16T22:35:30;26.17;;;19.42;;
21158;SDS011;10737;45.436;4.390;2023-04-16T22:40:33;24.13;;;18.63;;
21158;SDS011;10737;45.436;4.390;2023-04-16T22:45:39;22.52;;;18.10;;
21158;SDS011;10737;45.436;4.390;2023-04-16T22:50:54;22.77;;;18.42;;
21158;SDS011;10737;45.436;4.390;2023-04-16T22:56:00;22.55;;;18.13;;
21158;SDS011;10737;45.436;4.390;2023-04-16T23:01:07;24.85;;;18.38;;
21158;SDS011;10737;45.436;4.390;2023-04-16T23:06:10;22.10;;;18.60;;
21158;SDS011;10737;45.436;4.390;2023-04-16T23:11:23;24.00;;;18.63;;
21158;SDS011;10737;45.436;4.390;2023-04-16T23:22:07;22.25;;;17.95;;
21158;SDS011;10737;45.436;4.390;2023-04-16T23:33:12;24.00;;;18.50;;
21158;SDS011;10737;45.436;4.390;2023-04-16T23:38:27;23.70;;;17.70;;
21158;SDS011;10737;45.436;4.390;2023-04-16T23:43:30;21.42;;;17.63;;
21158;SDS011;10737;45.436;4.390;2023-04-16T23:48:36;22.40;;;18.88;;
21158;SDS011;10737;45.436;4.390;2023-04-16T23:54:06;25.30;;;18.73;;
21158;SDS011;10737;45.436;4.390;2023-04-16T23:59:13;26.02;;;18.33;;
